sensor_id;sensor_type;location;lat;lon;timestamp;temperature;humidity
69464;DHT22;56665;41.106;16.688;2023-06-10T00:00:52;23.42;77.01
69464;DHT22;56665;41.106;16.688;2023-06-10T00:03:56;23.39;77.30
69464;DHT22;56665;41.106;16.688;2023-06-10T00:07:00;23.39;77.52
69464;DHT22;56665;41.106;16.688;2023-06-10T00:10:05;23.39;77.82
69464;DHT22;56665;41.106;16.688;2023-06-10T00:13:09;23.39;78.16
69464;DHT22;56665;41.106;16.688;2023-06-10T00:16:14;23.39;78.73
69464;DHT22;56665;41.106;16.688;2023-06-10T00:19:17;23.37;79.27
69464;DHT22;56665;41.106;16.688;2023-06-10T00:22:22;23.36;79.37
69464;DHT22;56665;41.106;16.688;2023-06-10T00:25:30;23.34;79.70
69464;DHT22;56665;41.106;16.688;2023-06-10T00:28:34;23.37;79.96
69464;DHT22;56665;41.106;16.688;2023-06-10T00:31:38;23.32;80.05
69464;DHT22;56665;41.106;16.688;2023-06-10T00:34:43;23.30;80.23
69464;DHT22;56665;41.106;16.688;2023-06-10T00:37:47;23.26;80.43
69464;DHT22;56665;41.106;16.688;2023-06-10T00:40:51;23.27;80.71
69464;DHT22;56665;41.106;16.688;2023-06-10T00:43:55;23.26;80.73
69464;DHT22;56665;41.106;16.688;2023-06-10T00:46:59;23.29;80.73
69464;DHT22;56665;41.106;16.688;2023-06-10T00:50:03;23.30;80.92
69464;DHT22;56665;41.106;16.688;2023-06-10T00:53:08;23.29;80.88
69464;DHT22;56665;41.106;16.688;2023-06-10T00:56:13;23.30;80.90
69464;DHT22;56665;41.106;16.688;2023-06-10T00:59:19;23.25;80.91
69464;DHT22;56665;41.106;16.688;2023-06-10T01:02:23;23.27;80.90
69464;DHT22;56665;41.106;16.688;2023-06-10T01:05:27;23.29;80.83
69464;DHT22;56665;41.106;16.688;2023-06-10T01:12:17;23.25;80.81
69464;DHT22;56665;41.106;16.688;2023-06-10T01:15:22;23.27;80.88
69464;DHT22;56665;41.106;16.688;2023-06-10T01:18:32;23.26;80.88
69464;DHT22;56665;41.106;16.688;2023-06-10T01:21:37;23.26;80.86
69464;DHT22;56665;41.106;16.688;2023-06-10T01:24:42;23.25;80.88
69464;DHT22;56665;41.106;16.688;2023-06-10T01:27:49;23.26;80.82
69464;DHT22;56665;41.106;16.688;2023-06-10T01:34:01;23.25;80.73
69464;DHT22;56665;41.106;16.688;2023-06-10T01:37:06;23.25;80.74
69464;DHT22;56665;41.106;16.688;2023-06-10T01:40:11;23.23;80.69
69464;DHT22;56665;41.106;16.688;2023-06-10T01:43:16;23.25;80.51
69464;DHT22;56665;41.106;16.688;2023-06-10T01:46:19;23.20;80.47
69464;DHT22;56665;41.106;16.688;2023-06-10T01:49:24;23.22;80.43
69464;DHT22;56665;41.106;16.688;2023-06-10T01:52:29;23.20;80.16
69464;DHT22;56665;41.106;16.688;2023-06-10T01:55:33;23.19;80.29
69464;DHT22;56665;41.106;16.688;2023-06-10T01:58:37;23.18;79.98
69464;DHT22;56665;41.106;16.688;2023-06-10T02:01:40;23.15;79.89
69464;DHT22;56665;41.106;16.688;2023-06-10T02:04:47;23.18;79.84
69464;DHT22;56665;41.106;16.688;2023-06-10T02:07:51;23.18;79.70
69464;DHT22;56665;41.106;16.688;2023-06-10T02:10:55;23.16;79.52
69464;DHT22;56665;41.106;16.688;2023-06-10T02:13:58;23.15;79.08
69464;DHT22;56665;41.106;16.688;2023-06-10T02:17:02;23.16;78.81
69464;DHT22;56665;41.106;16.688;2023-06-10T02:20:07;23.12;77.93
69464;DHT22;56665;41.106;16.688;2023-06-10T02:23:14;23.15;77.05
69464;DHT22;56665;41.106;16.688;2023-06-10T02:26:17;23.11;76.48
69464;DHT22;56665;41.106;16.688;2023-06-10T02:29:21;23.12;75.37
69464;DHT22;56665;41.106;16.688;2023-06-10T02:32:25;23.07;74.91
69464;DHT22;56665;41.106;16.688;2023-06-10T02:35:29;23.06;74.32
69464;DHT22;56665;41.106;16.688;2023-06-10T02:38:33;23.07;74.15
69464;DHT22;56665;41.106;16.688;2023-06-10T02:41:37;23.06;73.54
69464;DHT22;56665;41.106;16.688;2023-06-10T02:44:41;23.06;73.08
69464;DHT22;56665;41.106;16.688;2023-06-10T02:47:50;23.09;72.46
69464;DHT22;56665;41.106;16.688;2023-06-10T02:50:53;23.05;72.41
69464;DHT22;56665;41.106;16.688;2023-06-10T02:54:11;23.02;72.43
69464;DHT22;56665;41.106;16.688;2023-06-10T02:57:15;23.06;72.21
69464;DHT22;56665;41.106;16.688;2023-06-10T03:00:20;23.03;71.89
69464;DHT22;56665;41.106;16.688;2023-06-10T03:03:25;22.99;71.89
69464;DHT22;56665;41.106;16.688;2023-06-10T03:06:40;22.99;71.90
69464;DHT22;56665;41.106;16.688;2023-06-10T03:09:53;23.00;71.78
69464;DHT22;56665;41.106;16.688;2023-06-10T03:12:56;22.98;71.60
69464;DHT22;56665;41.106;16.688;2023-06-10T03:16:01;22.96;71.62
69464;DHT22;56665;41.106;16.688;2023-06-10T03:19:10;22.96;71.54
69464;DHT22;56665;41.106;16.688;2023-06-10T03:22:17;22.95;71.65
69464;DHT22;56665;41.106;16.688;2023-06-10T03:25:37;22.95;71.62
69464;DHT22;56665;41.106;16.688;2023-06-10T03:28:41;22.94;71.84
69464;DHT22;56665;41.106;16.688;2023-06-10T03:31:46;22.89;72.30
69464;DHT22;56665;41.106;16.688;2023-06-10T03:34:49;22.86;72.84
69464;DHT22;56665;41.106;16.688;2023-06-10T03:37:56;22.82;72.99
69464;DHT22;56665;41.106;16.688;2023-06-10T03:40:59;22.81;72.98
69464;DHT22;56665;41.106;16.688;2023-06-10T03:44:04;22.81;73.11
69464;DHT22;56665;41.106;16.688;2023-06-10T03:47:07;22.81;72.98
69464;DHT22;56665;41.106;16.688;2023-06-10T03:50:12;22.85;72.78
69464;DHT22;56665;41.106;16.688;2023-06-10T03:53:18;22.89;72.32
69464;DHT22;56665;41.106;16.688;2023-06-10T03:56:23;22.96;72.14
69464;DHT22;56665;41.106;16.688;2023-06-10T03:59:27;23.05;71.93
69464;DHT22;56665;41.106;16.688;2023-06-10T04:02:31;23.15;71.47
69464;DHT22;56665;41.106;16.688;2023-06-10T04:05:36;23.25;71.16
69464;DHT22;56665;41.106;16.688;2023-06-10T04:08:39;23.34;70.59
69464;DHT22;56665;41.106;16.688;2023-06-10T04:11:44;23.42;70.03
69464;DHT22;56665;41.106;16.688;2023-06-10T04:14:47;23.46;70.04
69464;DHT22;56665;41.106;16.688;2023-06-10T04:17:51;23.57;69.46
69464;DHT22;56665;41.106;16.688;2023-06-10T04:20:59;23.63;69.46
69464;DHT22;56665;41.106;16.688;2023-06-10T04:24:03;23.70;69.12
69464;DHT22;56665;41.106;16.688;2023-06-10T04:27:08;23.80;69.03
69464;DHT22;56665;41.106;16.688;2023-06-10T04:30:12;23.94;68.44
69464;DHT22;56665;41.106;16.688;2023-06-10T04:33:17;24.09;67.86
69464;DHT22;56665;41.106;16.688;2023-06-10T04:36:21;24.26;67.33
69464;DHT22;56665;41.106;16.688;2023-06-10T04:39:24;24.33;66.75
69464;DHT22;56665;41.106;16.688;2023-06-10T04:42:29;24.46;66.45
69464;DHT22;56665;41.106;16.688;2023-06-10T04:45:33;24.56;65.95
69464;DHT22;56665;41.106;16.688;2023-06-10T04:48:37;24.69;65.53
69464;DHT22;56665;41.106;16.688;2023-06-10T04:51:42;24.88;65.11
69464;DHT22;56665;41.106;16.688;2023-06-10T04:54:46;25.15;64.48
69464;DHT22;56665;41.106;16.688;2023-06-10T04:57:49;25.42;64.04
69464;DHT22;56665;41.106;16.688;2023-06-10T05:00:53;25.65;63.44
69464;DHT22;56665;41.106;16.688;2023-06-10T05:03:57;25.86;62.92
69464;DHT22;56665;41.106;16.688;2023-06-10T05:07:01;26.07;62.58
69464;DHT22;56665;41.106;16.688;2023-06-10T05:10:05;26.24;61.39
69464;DHT22;56665;41.106;16.688;2023-06-10T05:13:09;26.31;60.96
69464;DHT22;56665;41.106;16.688;2023-06-10T05:16:12;26.34;60.88
69464;DHT22;56665;41.106;16.688;2023-06-10T05:19:18;26.30;60.69
69464;DHT22;56665;41.106;16.688;2023-06-10T05:22:21;26.31;60.25
69464;DHT22;56665;41.106;16.688;2023-06-10T05:25:30;26.41;59.56
69464;DHT22;56665;41.106;16.688;2023-06-10T05:28:34;26.48;59.26
69464;DHT22;56665;41.106;16.688;2023-06-10T05:31:45;26.65;58.83
69464;DHT22;56665;41.106;16.688;2023-06-10T05:34:49;26.77;58.58
69464;DHT22;56665;41.106;16.688;2023-06-10T05:37:53;26.98;58.84
69464;DHT22;56665;41.106;16.688;2023-06-10T05:40:57;27.12;58.43
69464;DHT22;56665;41.106;16.688;2023-06-10T05:44:02;27.20;57.67
69464;DHT22;56665;41.106;16.688;2023-06-10T05:47:06;27.16;57.80
69464;DHT22;56665;41.106;16.688;2023-06-10T05:50:09;27.24;57.59
69464;DHT22;56665;41.106;16.688;2023-06-10T05:53:17;27.27;57.38
69464;DHT22;56665;41.106;16.688;2023-06-10T05:56:20;27.38;57.39
69464;DHT22;56665;41.106;16.688;2023-06-10T05:59:27;27.59;56.42
69464;DHT22;56665;41.106;16.688;2023-06-10T06:02:31;27.88;55.96
69464;DHT22;56665;41.106;16.688;2023-06-10T06:05:35;28.33;57.02
69464;DHT22;56665;41.106;16.688;2023-06-10T06:08:40;28.53;55.20
69464;DHT22;56665;41.106;16.688;2023-06-10T06:11:44;28.69;54.12
69464;DHT22;56665;41.106;16.688;2023-06-10T06:14:48;28.73;54.42
69464;DHT22;56665;41.106;16.688;2023-06-10T06:17:52;28.80;54.37
69464;DHT22;56665;41.106;16.688;2023-06-10T06:20:56;28.76;54.23
69464;DHT22;56665;41.106;16.688;2023-06-10T06:24:00;28.75;54.76
69464;DHT22;56665;41.106;16.688;2023-06-10T06:27:04;28.76;54.87
69464;DHT22;56665;41.106;16.688;2023-06-10T06:30:09;28.89;55.88
69464;DHT22;56665;41.106;16.688;2023-06-10T06:33:13;29.11;54.15
69464;DHT22;56665;41.106;16.688;2023-06-10T06:36:17;29.38;53.96
69464;DHT22;56665;41.106;16.688;2023-06-10T06:39:21;29.51;52.99
69464;DHT22;56665;41.106;16.688;2023-06-10T06:42:25;29.88;52.57
69464;DHT22;56665;41.106;16.688;2023-06-10T06:45:38;30.17;52.24
69464;DHT22;56665;41.106;16.688;2023-06-10T06:48:42;30.23;51.80
69464;DHT22;56665;41.106;16.688;2023-06-10T06:51:46;29.93;52.29
69464;DHT22;56665;41.106;16.688;2023-06-10T06:54:49;29.84;52.20
69464;DHT22;56665;41.106;16.688;2023-06-10T06:57:53;29.72;52.47
69464;DHT22;56665;41.106;16.688;2023-06-10T07:00:57;29.76;53.00
69464;DHT22;56665;41.106;16.688;2023-06-10T07:04:02;29.57;53.28
69464;DHT22;56665;41.106;16.688;2023-06-10T07:07:07;29.34;53.85
69464;DHT22;56665;41.106;16.688;2023-06-10T07:10:12;29.08;54.44
69464;DHT22;56665;41.106;16.688;2023-06-10T07:13:16;28.86;55.01
69464;DHT22;56665;41.106;16.688;2023-06-10T07:16:19;28.58;55.60
69464;DHT22;56665;41.106;16.688;2023-06-10T07:19:25;28.28;56.37
69464;DHT22;56665;41.106;16.688;2023-06-10T07:22:29;28.09;56.75
69464;DHT22;56665;41.106;16.688;2023-06-10T07:25:32;27.87;57.75
69464;DHT22;56665;41.106;16.688;2023-06-10T07:28:37;27.59;58.42
69464;DHT22;56665;41.106;16.688;2023-06-10T07:31:41;27.32;58.61
69464;DHT22;56665;41.106;16.688;2023-06-10T07:34:45;27.13;59.14
69464;DHT22;56665;41.106;16.688;2023-06-10T07:37:49;27.02;59.02
69464;DHT22;56665;41.106;16.688;2023-06-10T07:40:53;27.01;59.72
69464;DHT22;56665;41.106;16.688;2023-06-10T07:43:57;26.92;60.42
69464;DHT22;56665;41.106;16.688;2023-06-10T07:47:00;26.88;61.10
69464;DHT22;56665;41.106;16.688;2023-06-10T07:50:04;26.99;61.93
69464;DHT22;56665;41.106;16.688;2023-06-10T07:53:08;26.98;61.80
69464;DHT22;56665;41.106;16.688;2023-06-10T07:56:13;26.94;61.72
69464;DHT22;56665;41.106;16.688;2023-06-10T07:59:16;26.91;62.14
69464;DHT22;56665;41.106;16.688;2023-06-10T08:02:20;26.85;63.05
69464;DHT22;56665;41.106;16.688;2023-06-10T08:05:24;26.85;64.12
69464;DHT22;56665;41.106;16.688;2023-06-10T08:08:28;26.80;65.11
69464;DHT22;56665;41.106;16.688;2023-06-10T08:11:31;26.61;67.13
69464;DHT22;56665;41.106;16.688;2023-06-10T08:14:35;26.40;68.26
69464;DHT22;56665;41.106;16.688;2023-06-10T08:17:40;26.29;68.48
69464;DHT22;56665;41.106;16.688;2023-06-10T08:20:44;26.09;68.56
69464;DHT22;56665;41.106;16.688;2023-06-10T08:23:52;26.06;69.35
69464;DHT22;56665;41.106;16.688;2023-06-10T08:26:56;25.99;69.66
69464;DHT22;56665;41.106;16.688;2023-06-10T08:30:01;25.78;70.02
69464;DHT22;56665;41.106;16.688;2023-06-10T08:33:05;25.54;70.96
69464;DHT22;56665;41.106;16.688;2023-06-10T08:36:09;25.30;72.80
69464;DHT22;56665;41.106;16.688;2023-06-10T08:39:13;25.01;74.19
69464;DHT22;56665;41.106;16.688;2023-06-10T08:42:25;24.77;75.46
69464;DHT22;56665;41.106;16.688;2023-06-10T08:45:31;24.53;75.76
69464;DHT22;56665;41.106;16.688;2023-06-10T08:48:39;24.29;77.09
69464;DHT22;56665;41.106;16.688;2023-06-10T08:51:48;23.88;79.33
69464;DHT22;56665;41.106;16.688;2023-06-10T08:55:01;23.25;83.16
69464;DHT22;56665;41.106;16.688;2023-06-10T08:58:06;22.75;85.91
69464;DHT22;56665;41.106;16.688;2023-06-10T09:01:10;22.53;87.31
69464;DHT22;56665;41.106;16.688;2023-06-10T09:04:15;22.38;88.28
69464;DHT22;56665;41.106;16.688;2023-06-10T09:07:21;22.26;88.48
69464;DHT22;56665;41.106;16.688;2023-06-10T09:10:25;22.26;89.65
69464;DHT22;56665;41.106;16.688;2023-06-10T09:13:29;22.28;90.07
69464;DHT22;56665;41.106;16.688;2023-06-10T09:16:33;22.26;89.85
69464;DHT22;56665;41.106;16.688;2023-06-10T09:19:38;22.28;89.90
69464;DHT22;56665;41.106;16.688;2023-06-10T09:22:44;22.28;89.69
69464;DHT22;56665;41.106;16.688;2023-06-10T09:25:56;22.31;89.35
69464;DHT22;56665;41.106;16.688;2023-06-10T09:29:07;22.43;89.86
69464;DHT22;56665;41.106;16.688;2023-06-10T09:32:17;22.50;89.37
69464;DHT22;56665;41.106;16.688;2023-06-10T09:35:21;22.57;89.03
69464;DHT22;56665;41.106;16.688;2023-06-10T09:38:30;22.60;87.68
69464;DHT22;56665;41.106;16.688;2023-06-10T09:41:35;22.69;87.61
69464;DHT22;56665;41.106;16.688;2023-06-10T09:44:39;22.85;88.19
69464;DHT22;56665;41.106;16.688;2023-06-10T09:47:46;23.06;87.19
69464;DHT22;56665;41.106;16.688;2023-06-10T09:50:49;23.19;86.56
69464;DHT22;56665;41.106;16.688;2023-06-10T09:53:53;23.43;86.35
69464;DHT22;56665;41.106;16.688;2023-06-10T09:56:57;23.64;86.13
69464;DHT22;56665;41.106;16.688;2023-06-10T10:00:07;23.74;85.01
69464;DHT22;56665;41.106;16.688;2023-06-10T10:03:22;23.90;84.71
69464;DHT22;56665;41.106;16.688;2023-06-10T10:06:27;24.11;84.28
69464;DHT22;56665;41.106;16.688;2023-06-10T10:09:32;24.26;83.64
69464;DHT22;56665;41.106;16.688;2023-06-10T10:12:38;24.49;82.82
69464;DHT22;56665;41.106;16.688;2023-06-10T10:15:41;24.70;82.38
69464;DHT22;56665;41.106;16.688;2023-06-10T10:18:52;24.72;80.96
69464;DHT22;56665;41.106;16.688;2023-06-10T10:22:01;24.82;81.77
69464;DHT22;56665;41.106;16.688;2023-06-10T10:25:12;24.77;81.10
69464;DHT22;56665;41.106;16.688;2023-06-10T10:28:19;24.74;81.91
69464;DHT22;56665;41.106;16.688;2023-06-10T10:31:23;24.63;82.02
69464;DHT22;56665;41.106;16.688;2023-06-10T10:34:50;24.52;82.00
69464;DHT22;56665;41.106;16.688;2023-06-10T10:37:56;24.48;82.42
69464;DHT22;56665;41.106;16.688;2023-06-10T10:41:01;24.43;82.24
69464;DHT22;56665;41.106;16.688;2023-06-10T10:44:06;24.39;82.65
69464;DHT22;56665;41.106;16.688;2023-06-10T10:47:15;24.36;82.22
69464;DHT22;56665;41.106;16.688;2023-06-10T10:50:20;24.38;82.31
69464;DHT22;56665;41.106;16.688;2023-06-10T10:53:24;24.41;81.90
69464;DHT22;56665;41.106;16.688;2023-06-10T10:56:29;24.45;81.10
69464;DHT22;56665;41.106;16.688;2023-06-10T11:00:04;24.55;80.54
69464;DHT22;56665;41.106;16.688;2023-06-10T11:03:13;24.56;80.63
69464;DHT22;56665;41.106;16.688;2023-06-10T11:06:18;24.60;79.98
69464;DHT22;56665;41.106;16.688;2023-06-10T11:09:26;24.64;80.03
69464;DHT22;56665;41.106;16.688;2023-06-10T11:15:50;25.03;77.81
69464;DHT22;56665;41.106;16.688;2023-06-10T11:18:54;25.22;78.21
69464;DHT22;56665;41.106;16.688;2023-06-10T11:21:59;25.42;76.46
69464;DHT22;56665;41.106;16.688;2023-06-10T11:25:13;25.71;75.03
69464;DHT22;56665;41.106;16.688;2023-06-10T11:28:18;26.09;74.29
69464;DHT22;56665;41.106;16.688;2023-06-10T11:31:23;26.41;73.03
69464;DHT22;56665;41.106;16.688;2023-06-10T11:34:27;26.65;72.70
69464;DHT22;56665;41.106;16.688;2023-06-10T11:37:30;26.80;72.51
69464;DHT22;56665;41.106;16.688;2023-06-10T11:40:34;26.87;71.11
69464;DHT22;56665;41.106;16.688;2023-06-10T11:43:43;26.87;71.83
69464;DHT22;56665;41.106;16.688;2023-06-10T11:46:48;26.80;72.16
69464;DHT22;56665;41.106;16.688;2023-06-10T11:49:56;26.64;72.27
69464;DHT22;56665;41.106;16.688;2023-06-10T11:53:00;26.57;72.63
69464;DHT22;56665;41.106;16.688;2023-06-10T11:56:04;26.47;72.99
69464;DHT22;56665;41.106;16.688;2023-06-10T11:59:07;26.44;72.67
69464;DHT22;56665;41.106;16.688;2023-06-10T12:02:15;26.45;72.90
69464;DHT22;56665;41.106;16.688;2023-06-10T12:05:19;26.44;72.64
69464;DHT22;56665;41.106;16.688;2023-06-10T12:08:23;26.50;72.69
69464;DHT22;56665;41.106;16.688;2023-06-10T12:11:26;26.64;71.74
69464;DHT22;56665;41.106;16.688;2023-06-10T12:14:59;26.91;70.07
69464;DHT22;56665;41.106;16.688;2023-06-10T12:18:03;26.85;70.83
69464;DHT22;56665;41.106;16.688;2023-06-10T12:21:17;26.84;71.11
69464;DHT22;56665;41.106;16.688;2023-06-10T12:24:21;26.55;71.12
69464;DHT22;56665;41.106;16.688;2023-06-10T12:27:25;26.58;71.96
69464;DHT22;56665;41.106;16.688;2023-06-10T12:30:29;26.92;71.00
69464;DHT22;56665;41.106;16.688;2023-06-10T12:33:32;27.06;69.25
69464;DHT22;56665;41.106;16.688;2023-06-10T12:36:36;27.13;68.46
69464;DHT22;56665;41.106;16.688;2023-06-10T12:39:41;27.06;68.74
69464;DHT22;56665;41.106;16.688;2023-06-10T12:42:45;27.26;68.78
69464;DHT22;56665;41.106;16.688;2023-06-10T12:45:49;27.24;68.22
69464;DHT22;56665;41.106;16.688;2023-06-10T12:48:53;27.26;68.67
69464;DHT22;56665;41.106;16.688;2023-06-10T12:51:58;27.50;67.74
69464;DHT22;56665;41.106;16.688;2023-06-10T12:55:02;27.66;66.64
69464;DHT22;56665;41.106;16.688;2023-06-10T12:58:07;27.67;67.37
69464;DHT22;56665;41.106;16.688;2023-06-10T13:01:12;27.73;67.36
69464;DHT22;56665;41.106;16.688;2023-06-10T13:04:16;27.69;67.45
69464;DHT22;56665;41.106;16.688;2023-06-10T13:07:19;27.91;67.53
69464;DHT22;56665;41.106;16.688;2023-06-10T13:10:23;28.18;66.32
69464;DHT22;56665;41.106;16.688;2023-06-10T13:13:28;28.43;65.54
69464;DHT22;56665;41.106;16.688;2023-06-10T13:16:32;28.42;64.71
69464;DHT22;56665;41.106;16.688;2023-06-10T13:19:36;28.33;64.86
69464;DHT22;56665;41.106;16.688;2023-06-10T13:22:40;28.31;64.60
69464;DHT22;56665;41.106;16.688;2023-06-10T13:25:43;28.58;63.96
69464;DHT22;56665;41.106;16.688;2023-06-10T13:28:48;28.86;63.14
69464;DHT22;56665;41.106;16.688;2023-06-10T13:31:51;29.04;62.49
69464;DHT22;56665;41.106;16.688;2023-06-10T13:34:55;29.39;61.68
69464;DHT22;56665;41.106;16.688;2023-06-10T13:38:00;29.54;60.10
69464;DHT22;56665;41.106;16.688;2023-06-10T13:41:04;29.59;59.92
69464;DHT22;56665;41.106;16.688;2023-06-10T13:44:09;29.44;59.62
69464;DHT22;56665;41.106;16.688;2023-06-10T13:47:14;29.26;59.84
69464;DHT22;56665;41.106;16.688;2023-06-10T13:50:17;28.86;58.90
69464;DHT22;56665;41.106;16.688;2023-06-10T13:53:21;28.73;60.94
69464;DHT22;56665;41.106;16.688;2023-06-10T13:56:24;28.77;60.55
69464;DHT22;56665;41.106;16.688;2023-06-10T13:59:28;29.06;60.98
69464;DHT22;56665;41.106;16.688;2023-06-10T14:02:32;29.15;60.82
69464;DHT22;56665;41.106;16.688;2023-06-10T14:05:36;28.97;60.82
69464;DHT22;56665;41.106;16.688;2023-06-10T14:08:39;29.14;60.14
69464;DHT22;56665;41.106;16.688;2023-06-10T14:11:44;28.97;57.71
69464;DHT22;56665;41.106;16.688;2023-06-10T14:14:47;29.08;57.67
69464;DHT22;56665;41.106;16.688;2023-06-10T14:17:51;28.93;58.04
69464;DHT22;56665;41.106;16.688;2023-06-10T14:20:55;28.84;58.00
69464;DHT22;56665;41.106;16.688;2023-06-10T14:23:58;28.99;56.91
69464;DHT22;56665;41.106;16.688;2023-06-10T14:27:03;28.80;56.94
69464;DHT22;56665;41.106;16.688;2023-06-10T14:30:07;28.72;57.78
69464;DHT22;56665;41.106;16.688;2023-06-10T14:33:11;28.69;58.96
69464;DHT22;56665;41.106;16.688;2023-06-10T14:36:14;28.43;59.61
69464;DHT22;56665;41.106;16.688;2023-06-10T14:39:18;28.25;60.27
69464;DHT22;56665;41.106;16.688;2023-06-10T14:42:22;28.62;59.40
69464;DHT22;56665;41.106;16.688;2023-06-10T14:45:25;28.96;56.95
69464;DHT22;56665;41.106;16.688;2023-06-10T14:48:29;29.18;57.05
69464;DHT22;56665;41.106;16.688;2023-06-10T14:51:33;29.18;57.04
69464;DHT22;56665;41.106;16.688;2023-06-10T14:54:37;29.14;56.23
69464;DHT22;56665;41.106;16.688;2023-06-10T14:57:41;28.99;57.69
69464;DHT22;56665;41.106;16.688;2023-06-10T15:00:45;28.86;58.13
69464;DHT22;56665;41.106;16.688;2023-06-10T15:03:48;28.62;57.72
69464;DHT22;56665;41.106;16.688;2023-06-10T15:06:52;28.46;57.30
69464;DHT22;56665;41.106;16.688;2023-06-10T15:09:56;28.18;58.38
69464;DHT22;56665;41.106;16.688;2023-06-10T15:12:59;27.81;58.93
69464;DHT22;56665;41.106;16.688;2023-06-10T15:16:03;27.66;59.44
69464;DHT22;56665;41.106;16.688;2023-06-10T15:19:07;27.42;60.24
69464;DHT22;56665;41.106;16.688;2023-06-10T15:22:11;27.13;60.39
69464;DHT22;56665;41.106;16.688;2023-06-10T15:25:16;27.03;60.45
69464;DHT22;56665;41.106;16.688;2023-06-10T15:28:19;26.89;62.87
69464;DHT22;56665;41.106;16.688;2023-06-10T15:31:23;26.84;63.53
69464;DHT22;56665;41.106;16.688;2023-06-10T15:34:27;26.75;63.79
69464;DHT22;56665;41.106;16.688;2023-06-10T15:37:31;26.78;64.31
69464;DHT22;56665;41.106;16.688;2023-06-10T15:40:34;26.68;64.42
69464;DHT22;56665;41.106;16.688;2023-06-10T15:43:39;26.55;64.71
69464;DHT22;56665;41.106;16.688;2023-06-10T15:46:43;26.47;64.85
69464;DHT22;56665;41.106;16.688;2023-06-10T15:49:47;26.37;65.32
69464;DHT22;56665;41.106;16.688;2023-06-10T15:52:51;26.12;64.87
69464;DHT22;56665;41.106;16.688;2023-06-10T15:55:55;26.00;65.65
69464;DHT22;56665;41.106;16.688;2023-06-10T15:58:59;25.99;65.53
69464;DHT22;56665;41.106;16.688;2023-06-10T16:02:03;25.93;65.88
69464;DHT22;56665;41.106;16.688;2023-06-10T16:05:07;25.88;65.80
69464;DHT22;56665;41.106;16.688;2023-06-10T16:08:11;25.69;65.61
69464;DHT22;56665;41.106;16.688;2023-06-10T16:11:15;25.57;65.89
69464;DHT22;56665;41.106;16.688;2023-06-10T16:14:19;25.46;66.82
69464;DHT22;56665;41.106;16.688;2023-06-10T16:17:23;25.44;66.02
69464;DHT22;56665;41.106;16.688;2023-06-10T16:20:26;25.41;64.42
69464;DHT22;56665;41.106;16.688;2023-06-10T16:23:30;25.35;64.54
69464;DHT22;56665;41.106;16.688;2023-06-10T16:26:34;25.28;62.74
69464;DHT22;56665;41.106;16.688;2023-06-10T16:29:38;25.22;61.31
69464;DHT22;56665;41.106;16.688;2023-06-10T16:32:42;25.17;60.69
69464;DHT22;56665;41.106;16.688;2023-06-10T16:35:46;25.13;61.35
69464;DHT22;56665;41.106;16.688;2023-06-10T16:38:50;25.07;60.05
69464;DHT22;56665;41.106;16.688;2023-06-10T16:41:54;25.03;60.51
69464;DHT22;56665;41.106;16.688;2023-06-10T16:44:57;25.01;60.24
69464;DHT22;56665;41.106;16.688;2023-06-10T16:48:01;24.99;60.30
69464;DHT22;56665;41.106;16.688;2023-06-10T16:51:05;24.97;60.64
69464;DHT22;56665;41.106;16.688;2023-06-10T16:54:09;24.90;60.53
69464;DHT22;56665;41.106;16.688;2023-06-10T16:57:13;24.86;60.63
69464;DHT22;56665;41.106;16.688;2023-06-10T17:00:17;24.82;60.44
69464;DHT22;56665;41.106;16.688;2023-06-10T17:03:20;24.77;60.21
69464;DHT22;56665;41.106;16.688;2023-06-10T17:06:24;24.74;60.78
69464;DHT22;56665;41.106;16.688;2023-06-10T17:09:28;24.59;62.82
69464;DHT22;56665;41.106;16.688;2023-06-10T17:12:31;24.39;63.80
69464;DHT22;56665;41.106;16.688;2023-06-10T17:15:35;24.23;65.07
69464;DHT22;56665;41.106;16.688;2023-06-10T17:18:39;24.09;66.22
69464;DHT22;56665;41.106;16.688;2023-06-10T17:21:43;23.98;67.05
69464;DHT22;56665;41.106;16.688;2023-06-10T17:24:47;23.91;68.08
69464;DHT22;56665;41.106;16.688;2023-06-10T17:27:52;23.75;67.85
69464;DHT22;56665;41.106;16.688;2023-06-10T17:30:55;23.64;68.81
69464;DHT22;56665;41.106;16.688;2023-06-10T17:33:59;23.60;69.09
69464;DHT22;56665;41.106;16.688;2023-06-10T17:37:03;23.49;69.45
69464;DHT22;56665;41.106;16.688;2023-06-10T17:40:07;23.43;70.00
69464;DHT22;56665;41.106;16.688;2023-06-10T17:43:11;23.40;70.94
69464;DHT22;56665;41.106;16.688;2023-06-10T17:46:15;23.42;71.22
69464;DHT22;56665;41.106;16.688;2023-06-10T17:49:22;23.37;71.50
69464;DHT22;56665;41.106;16.688;2023-06-10T17:52:26;23.40;71.72
69464;DHT22;56665;41.106;16.688;2023-06-10T17:55:31;23.32;71.50
69464;DHT22;56665;41.106;16.688;2023-06-10T17:58:34;23.32;71.83
69464;DHT22;56665;41.106;16.688;2023-06-10T18:01:38;23.33;71.62
69464;DHT22;56665;41.106;16.688;2023-06-10T18:04:42;23.37;71.91
69464;DHT22;56665;41.106;16.688;2023-06-10T18:07:46;23.34;72.41
69464;DHT22;56665;41.106;16.688;2023-06-10T18:10:50;23.29;72.67
69464;DHT22;56665;41.106;16.688;2023-06-10T18:13:54;23.20;73.11
69464;DHT22;56665;41.106;16.688;2023-06-10T18:16:57;23.06;73.17
69464;DHT22;56665;41.106;16.688;2023-06-10T18:20:02;22.98;72.64
69464;DHT22;56665;41.106;16.688;2023-06-10T18:23:06;22.88;72.72
69464;DHT22;56665;41.106;16.688;2023-06-10T18:26:10;22.95;72.79
69464;DHT22;56665;41.106;16.688;2023-06-10T18:29:14;22.91;72.23
69464;DHT22;56665;41.106;16.688;2023-06-10T18:32:17;22.85;72.86
69464;DHT22;56665;41.106;16.688;2023-06-10T18:35:21;22.89;73.08
69464;DHT22;56665;41.106;16.688;2023-06-10T18:38:25;22.79;72.78
69464;DHT22;56665;41.106;16.688;2023-06-10T18:41:29;22.74;73.07
69464;DHT22;56665;41.106;16.688;2023-06-10T18:44:33;22.76;73.73
69464;DHT22;56665;41.106;16.688;2023-06-10T18:47:36;22.74;73.55
69464;DHT22;56665;41.106;16.688;2023-06-10T18:50:40;22.72;73.28
69464;DHT22;56665;41.106;16.688;2023-06-10T18:53:44;22.72;73.74
69464;DHT22;56665;41.106;16.688;2023-06-10T18:56:49;22.74;74.18
69464;DHT22;56665;41.106;16.688;2023-06-10T18:59:55;22.71;74.43
69464;DHT22;56665;41.106;16.688;2023-06-10T19:02:58;22.69;75.00
69464;DHT22;56665;41.106;16.688;2023-06-10T19:06:03;22.65;75.18
69464;DHT22;56665;41.106;16.688;2023-06-10T19:09:07;22.68;75.93
69464;DHT22;56665;41.106;16.688;2023-06-10T19:12:11;22.69;75.44
69464;DHT22;56665;41.106;16.688;2023-06-10T19:15:15;22.68;75.99
69464;DHT22;56665;41.106;16.688;2023-06-10T19:18:19;22.76;74.30